createdAt,value
2017-09-13T00:01:08.370Z,13.90
2017-09-13T00:03:37.611Z,13.90
2017-09-13T00:06:07.569Z,13.90
2017-09-13T00:08:36.814Z,13.90
2017-09-13T00:11:06.698Z,13.90
2017-09-13T00:13:36.446Z,13.90
2017-09-13T00:16:06.963Z,13.90
2017-09-13T00:18:36.519Z,13.90
2017-09-13T00:21:06.348Z,13.90
2017-09-13T00:23:36.417Z,13.90
2017-09-13T00:26:06.430Z,13.90
2017-09-13T00:28:36.582Z,13.90
2017-09-13T00:31:05.939Z,13.90
2017-09-13T00:33:35.180Z,14.00
2017-09-13T00:36:05.307Z,13.90
2017-09-13T00:38:34.516Z,13.90
2017-09-13T00:41:04.062Z,13.90
2017-09-13T00:43:33.298Z,13.90
2017-09-13T00:46:02.701Z,13.90
2017-09-13T00:48:35.490Z,13.90
2017-09-13T00:51:07.170Z,14.00
2017-09-13T00:53:36.476Z,13.90
2017-09-13T00:56:05.985Z,13.90
2017-09-13T00:58:35.177Z,13.90
2017-09-13T01:01:04.331Z,13.90
2017-09-13T01:03:33.521Z,13.90
2017-09-13T01:06:02.891Z,14.00
2017-09-13T01:08:32.115Z,14.00
2017-09-13T01:11:01.321Z,14.00
2017-09-13T01:13:31.674Z,14.10
2017-09-13T01:16:00.979Z,14.00
2017-09-13T01:18:30.175Z,14.10
2017-09-13T01:20:59.358Z,14.20
2017-09-13T01:23:30.144Z,14.20
2017-09-13T01:25:59.970Z,14.30
2017-09-13T01:28:29.987Z,14.30
2017-09-13T01:30:59.530Z,14.30
2017-09-13T01:33:28.806Z,14.30
2017-09-13T01:35:58.420Z,14.40
2017-09-13T01:38:29.504Z,14.50
2017-09-13T01:40:58.832Z,14.50
2017-09-13T01:43:29.501Z,14.50
2017-09-13T01:45:58.795Z,14.50
2017-09-13T01:48:28.175Z,14.50
2017-09-13T01:50:57.468Z,14.60
2017-09-13T01:53:26.691Z,14.50
2017-09-13T01:55:56.783Z,14.60
2017-09-13T01:58:26.003Z,14.60
2017-09-13T02:00:55.850Z,14.60
2017-09-13T02:03:25.129Z,14.70
2017-09-13T02:05:54.542Z,14.70
2017-09-13T02:08:24.194Z,14.70
2017-09-13T02:10:53.534Z,14.80
2017-09-13T02:13:22.733Z,14.80
2017-09-13T02:15:52.059Z,14.70
2017-09-13T02:18:21.246Z,14.80
2017-09-13T02:20:51.634Z,14.80
2017-09-13T02:23:21.025Z,14.80
2017-09-13T02:25:50.972Z,14.90
2017-09-13T02:28:20.967Z,14.90
2017-09-13T02:30:50.167Z,14.90
2017-09-13T02:33:19.386Z,14.90
2017-09-13T02:35:48.562Z,14.90
2017-09-13T02:38:17.699Z,14.90
2017-09-13T02:40:47.647Z,15.00
2017-09-13T02:43:16.871Z,15.00
2017-09-13T02:45:46.172Z,15.00
2017-09-13T02:48:15.410Z,15.00
2017-09-13T02:50:44.621Z,14.70
2017-09-13T02:53:13.832Z,14.40
2017-09-13T02:55:42.950Z,14.20
2017-09-13T02:58:12.956Z,13.90
2017-09-13T03:01:12.819Z,13.90
2017-09-13T03:03:42.802Z,13.70
2017-09-13T03:06:12.110Z,13.70
2017-09-13T03:08:41.272Z,13.50
2017-09-13T03:11:11.448Z,13.40
2017-09-13T03:13:41.355Z,13.20
2017-09-13T03:16:10.519Z,13.20
2017-09-13T03:18:40.445Z,13.20
2017-09-13T03:21:10.307Z,13.20
2017-09-13T03:23:39.724Z,13.10
2017-09-13T03:26:08.961Z,13.30
2017-09-13T03:28:38.979Z,13.40
2017-09-13T03:31:08.156Z,13.40
2017-09-13T03:33:37.326Z,13.40
2017-09-13T03:36:06.482Z,13.40
2017-09-13T03:38:35.606Z,13.50
2017-09-13T03:41:05.563Z,13.50
2017-09-13T03:43:34.713Z,13.50
2017-09-13T03:46:04.655Z,13.60
2017-09-13T03:48:33.845Z,13.60
2017-09-13T03:51:02.978Z,13.60
2017-09-13T03:53:32.869Z,13.70
2017-09-13T03:56:02.372Z,13.70
2017-09-13T03:58:31.533Z,13.70
2017-09-13T04:01:01.446Z,13.70
2017-09-13T04:03:30.674Z,13.70
2017-09-13T04:05:59.866Z,13.70
2017-09-13T04:08:29.877Z,13.80
2017-09-13T04:11:00.126Z,13.80
2017-09-13T04:13:29.279Z,13.80
2017-09-13T04:15:58.796Z,13.80
2017-09-13T04:18:28.670Z,13.90
2017-09-13T04:21:13.886Z,13.90
2017-09-13T04:23:43.800Z,13.90
2017-09-13T04:26:13.742Z,14.00
2017-09-13T04:28:42.995Z,13.90
2017-09-13T04:31:13.145Z,14.00
2017-09-13T04:33:42.257Z,14.00
2017-09-13T04:36:11.390Z,14.00
2017-09-13T04:38:40.527Z,13.80
2017-09-13T04:41:10.494Z,13.60
2017-09-13T04:43:55.792Z,13.60
2017-09-13T04:46:25.001Z,13.60
2017-09-13T04:48:54.946Z,13.50
2017-09-13T04:51:24.206Z,13.50
2017-09-13T04:53:53.451Z,13.50
2017-09-13T04:56:23.007Z,13.60
2017-09-13T04:58:52.219Z,13.60
2017-09-13T05:01:22.247Z,13.80
2017-09-13T05:03:52.192Z,13.80
2017-09-13T05:06:21.495Z,13.80
2017-09-13T05:08:50.756Z,13.90
2017-09-13T05:11:21.107Z,14.00
2017-09-13T05:13:52.118Z,14.00
2017-09-13T05:16:22.139Z,14.20
2017-09-13T05:18:52.100Z,14.30
2017-09-13T05:21:21.484Z,14.20
2017-09-13T05:23:51.191Z,14.30
2017-09-13T05:26:21.361Z,14.30
2017-09-13T05:28:50.846Z,14.40
2017-09-13T05:31:20.729Z,14.50
2017-09-13T05:33:50.126Z,14.50
2017-09-13T05:36:19.329Z,14.50
2017-09-13T05:38:48.913Z,14.60
2017-09-13T05:41:18.847Z,14.70
2017-09-13T05:43:48.553Z,14.70
2017-09-13T05:46:17.809Z,14.80
2017-09-13T05:48:47.166Z,14.80
2017-09-13T05:51:16.879Z,14.80
2017-09-13T05:53:46.237Z,14.90
2017-09-13T05:56:15.417Z,15.00
2017-09-13T05:58:45.142Z,15.00
2017-09-13T06:01:15.310Z,15.10
2017-09-13T06:03:45.327Z,15.20
2017-09-13T06:06:14.986Z,15.20
2017-09-13T06:08:44.262Z,15.20
2017-09-13T06:11:14.335Z,15.30
2017-09-13T06:13:44.446Z,15.40
2017-09-13T06:16:19.025Z,15.40
2017-09-13T06:18:48.595Z,15.50
2017-09-13T06:21:18.805Z,15.50
2017-09-13T06:23:49.419Z,15.50
2017-09-13T06:26:18.940Z,15.50
2017-09-13T06:28:50.821Z,15.30
2017-09-13T06:31:20.632Z,15.30
2017-09-13T06:33:57.542Z,14.90
2017-09-13T06:36:27.143Z,14.70
2017-09-13T06:38:57.389Z,14.50
2017-09-13T06:41:27.095Z,14.50
2017-09-13T06:43:57.932Z,14.50
2017-09-13T06:46:27.774Z,14.70
2017-09-13T06:48:57.148Z,14.80
2017-09-13T06:51:26.474Z,14.90
2017-09-13T06:53:56.492Z,15.20
2017-09-13T06:56:26.715Z,15.40
2017-09-13T06:59:07.608Z,15.50
2017-09-13T07:01:37.364Z,15.50
2017-09-13T07:04:06.975Z,15.80
2017-09-13T07:06:39.577Z,15.80
2017-09-13T07:09:08.965Z,16.00
2017-09-13T07:11:38.381Z,16.10
2017-09-13T07:14:09.876Z,16.20
2017-09-13T07:16:39.158Z,16.10
2017-09-13T07:19:09.276Z,16.20
2017-09-13T07:21:39.444Z,16.30
2017-09-13T07:24:08.697Z,16.30
2017-09-13T07:26:38.895Z,16.40
2017-09-13T07:29:09.029Z,16.30
2017-09-13T07:31:38.522Z,16.30
2017-09-13T07:34:08.904Z,16.50
2017-09-13T07:36:38.253Z,16.40
2017-09-13T07:39:08.715Z,16.50
2017-09-13T07:41:38.163Z,16.50
2017-09-13T07:44:07.418Z,16.60
2017-09-13T07:46:36.787Z,16.70
2017-09-13T07:49:08.187Z,16.90
2017-09-13T07:51:37.956Z,16.80
2017-09-13T07:54:08.246Z,17.10
2017-09-13T07:56:39.104Z,17.10
2017-09-13T07:59:08.556Z,17.10
2017-09-13T08:01:37.870Z,17.30
2017-09-13T08:04:07.853Z,17.70
2017-09-13T08:06:37.722Z,17.70
2017-09-13T08:09:07.076Z,17.70
2017-09-13T08:11:36.287Z,17.70
2017-09-13T08:14:05.536Z,17.70
2017-09-13T08:16:35.675Z,17.80
2017-09-13T08:19:04.944Z,17.90
2017-09-13T08:21:35.299Z,18.00
2017-09-13T08:24:05.341Z,18.10
2017-09-13T08:26:34.708Z,18.10
2017-09-13T08:29:04.058Z,18.30
2017-09-13T08:31:33.440Z,18.40
2017-09-13T08:34:02.747Z,18.70
2017-09-13T08:36:32.691Z,19.20
2017-09-13T08:39:03.251Z,19.60
2017-09-13T08:41:34.484Z,20.30
2017-09-13T08:44:03.802Z,20.30
2017-09-13T08:46:33.921Z,20.90
2017-09-13T08:49:03.421Z,20.90
2017-09-13T08:51:32.731Z,20.50
2017-09-13T08:55:05.722Z,19.40
2017-09-13T08:57:35.111Z,19.40
2017-09-13T09:00:05.288Z,18.70
2017-09-13T09:02:34.716Z,18.70
2017-09-13T09:05:05.082Z,18.90
2017-09-13T09:07:35.112Z,19.10
2017-09-13T09:10:04.359Z,19.10
2017-09-13T09:12:33.639Z,18.90
2017-09-13T09:15:03.211Z,18.60
2017-09-13T09:17:32.544Z,18.40
2017-09-13T09:20:01.999Z,17.70
2017-09-13T09:22:32.166Z,16.80
2017-09-13T09:25:01.339Z,16.70
2017-09-13T09:27:30.661Z,16.60
2017-09-13T09:30:00.477Z,16.50
2017-09-13T09:32:29.843Z,16.10
2017-09-13T09:35:00.018Z,15.60
2017-09-13T09:37:29.360Z,15.50
2017-09-13T09:39:59.486Z,15.10
2017-09-13T09:42:28.927Z,15.10
2017-09-13T09:44:58.289Z,15.00
2017-09-13T09:47:28.425Z,15.00
2017-09-13T09:49:57.710Z,15.00
2017-09-13T09:52:27.340Z,15.20
2017-09-13T09:54:56.506Z,15.20
2017-09-13T09:57:26.145Z,15.30
2017-09-13T09:59:55.476Z,15.40
2017-09-13T10:02:24.705Z,15.50
2017-09-13T10:04:55.351Z,15.60
2017-09-13T10:07:25.424Z,15.70
2017-09-13T10:09:54.879Z,15.70
2017-09-13T10:12:25.638Z,15.90
2017-09-13T10:14:55.919Z,16.00
2017-09-13T10:17:25.959Z,16.10
2017-09-13T10:19:57.811Z,16.90
2017-09-13T10:22:28.134Z,18.10
2017-09-13T10:24:58.405Z,19.60
2017-09-13T10:27:28.897Z,20.50
2017-09-13T10:29:58.957Z,21.30
2017-09-13T10:32:28.456Z,21.20
2017-09-13T10:34:58.134Z,22.30
2017-09-13T10:37:27.974Z,23.40
2017-09-13T10:39:57.408Z,23.70
2017-09-13T10:42:28.213Z,22.10
2017-09-13T10:45:24.343Z,22.10
2017-09-13T10:47:53.633Z,21.70
2017-09-13T10:50:23.238Z,20.70
2017-09-13T10:52:53.384Z,19.80
2017-09-13T10:55:22.939Z,19.80
2017-09-13T10:57:53.090Z,19.10
2017-09-13T11:00:22.590Z,19.10
2017-09-13T11:02:51.934Z,19.10
2017-09-13T11:05:21.491Z,19.40
2017-09-13T11:07:51.001Z,19.30
2017-09-13T11:10:20.660Z,19.50
2017-09-13T11:12:50.183Z,19.50
2017-09-13T11:15:19.484Z,19.50
2017-09-13T11:17:50.049Z,21.00
2017-09-13T11:20:19.396Z,21.00
2017-09-13T11:22:49.533Z,20.20
2017-09-13T11:25:19.880Z,20.50
2017-09-13T11:27:49.253Z,20.50
2017-09-13T11:30:19.317Z,22.20
2017-09-13T11:32:49.257Z,22.20
2017-09-13T11:35:18.627Z,21.60
2017-09-13T11:37:48.243Z,20.70
2017-09-13T11:40:17.604Z,20.30
2017-09-13T11:42:47.693Z,22.40
2017-09-13T11:45:23.478Z,22.30
2017-09-13T11:47:53.007Z,22.60
2017-09-13T11:50:22.698Z,22.90
2017-09-13T11:52:52.234Z,22.00
2017-09-13T11:55:23.689Z,21.20
2017-09-13T11:57:53.142Z,20.80
2017-09-13T12:00:23.667Z,20.00
2017-09-13T12:03:03.784Z,20.00
2017-09-13T12:05:34.444Z,19.90
2017-09-13T12:08:04.870Z,19.80
2017-09-13T12:10:34.430Z,19.90
2017-09-13T12:13:03.818Z,19.60
2017-09-13T12:15:33.734Z,19.70
2017-09-13T12:18:03.984Z,20.10
2017-09-13T12:20:34.056Z,20.00
2017-09-13T12:23:04.540Z,19.60
2017-09-13T12:25:34.475Z,19.30
2017-09-13T12:28:03.847Z,19.20
2017-09-13T12:30:33.653Z,19.00
2017-09-13T12:33:03.453Z,19.20
2017-09-13T12:35:32.945Z,19.40
2017-09-13T12:38:02.675Z,19.70
2017-09-13T12:40:32.193Z,20.30
2017-09-13T12:43:01.840Z,20.20
2017-09-13T12:45:31.610Z,20.20
2017-09-13T12:48:01.301Z,20.20
2017-09-13T12:50:31.304Z,21.50
2017-09-13T12:53:01.900Z,21.70
2017-09-13T12:55:31.448Z,21.70
2017-09-13T12:58:02.571Z,20.80
2017-09-13T13:00:37.015Z,20.80
2017-09-13T13:03:07.579Z,19.90
2017-09-13T13:05:36.945Z,19.50
2017-09-13T13:08:07.950Z,19.30
2017-09-13T13:10:37.796Z,19.20
2017-09-13T13:16:11.902Z,18.80
2017-09-13T13:18:41.664Z,19.00
2017-09-13T13:21:12.248Z,19.80
2017-09-13T13:23:43.637Z,19.30
2017-09-13T13:26:14.264Z,19.30
2017-09-13T13:28:45.988Z,18.80
2017-09-13T13:31:16.035Z,18.50
2017-09-13T13:33:45.559Z,18.30
2017-09-13T13:36:15.242Z,18.30
2017-09-13T13:38:45.007Z,18.20
2017-09-13T13:41:18.828Z,18.00
2017-09-13T13:43:53.425Z,17.90
2017-09-13T13:46:30.565Z,17.80
2017-09-13T13:49:01.896Z,17.80
2017-09-13T13:51:31.955Z,17.80
2017-09-13T13:54:01.793Z,17.70
2017-09-13T13:56:34.632Z,17.70
2017-09-13T13:59:05.019Z,17.60
2017-09-13T14:01:42.350Z,17.60
2017-09-13T14:04:12.163Z,17.50
2017-09-13T14:06:43.060Z,17.50
2017-09-13T14:09:27.149Z,17.50
2017-09-13T14:11:57.481Z,17.50
2017-09-13T14:14:27.013Z,17.50
2017-09-13T14:16:56.873Z,17.30
2017-09-13T14:19:26.621Z,17.00
2017-09-13T14:22:07.195Z,16.80
2017-09-13T14:24:43.672Z,16.40
2017-09-13T14:27:15.715Z,15.80
2017-09-13T14:29:46.828Z,15.30
2017-09-13T14:32:35.306Z,14.80
2017-09-13T14:35:08.920Z,14.60
2017-09-13T14:37:42.057Z,14.30
2017-09-13T14:40:12.560Z,14.10
2017-09-13T14:42:42.303Z,14.10
2017-09-13T14:45:12.200Z,14.00
2017-09-13T14:47:43.289Z,13.90
2017-09-13T14:50:13.754Z,14.00
2017-09-13T14:52:46.133Z,14.00
2017-09-13T14:55:17.282Z,14.20
2017-09-13T14:57:48.454Z,14.20
2017-09-13T15:00:23.326Z,14.80
2017-09-13T15:02:57.770Z,14.90
2017-09-13T15:05:30.929Z,14.90
2017-09-13T15:08:04.519Z,15.00
2017-09-13T15:10:35.200Z,15.10
2017-09-13T15:13:07.398Z,15.20
2017-09-13T15:15:37.412Z,15.20
2017-09-13T15:18:09.356Z,15.20
2017-09-13T15:20:39.708Z,15.30
2017-09-13T15:23:12.898Z,15.40
2017-09-13T15:25:43.971Z,15.70
2017-09-13T15:55:00.851Z,15.40
2017-09-13T15:57:33.899Z,15.60
2017-09-13T16:00:06.561Z,15.80
2017-09-13T16:02:43.820Z,16.00
2017-09-13T16:05:17.364Z,16.30
2017-09-13T16:07:48.381Z,16.30
2017-09-13T16:10:20.488Z,16.40
2017-09-13T16:12:53.710Z,16.50
2017-09-13T16:15:25.698Z,16.40
2017-09-13T16:20:40.631Z,16.50
2017-09-13T16:23:14.277Z,16.50
2017-09-13T16:25:46.092Z,16.50
2017-09-13T16:28:16.949Z,16.40
2017-09-13T16:30:49.530Z,16.50
2017-09-13T16:33:21.755Z,16.50
2017-09-13T16:35:56.058Z,16.50
2017-09-13T16:38:36.798Z,16.60
2017-09-13T16:41:06.604Z,16.50
2017-09-13T16:43:41.065Z,16.50
2017-09-13T16:46:15.527Z,16.70
2017-09-13T16:48:48.017Z,16.70
2017-09-13T16:51:22.178Z,16.70
2017-09-13T16:53:55.702Z,16.80
2017-09-13T16:56:29.311Z,16.90
2017-09-13T16:59:02.742Z,16.80
2017-09-13T17:01:38.054Z,17.00
2017-09-13T17:04:11.171Z,17.00
2017-09-13T17:06:44.167Z,17.10
2017-09-13T17:09:19.329Z,17.10
2017-09-13T17:11:53.602Z,17.00
2017-09-13T17:14:33.194Z,17.10
2017-09-13T17:17:07.070Z,17.00
2017-09-13T17:19:42.965Z,17.10
2017-09-13T17:22:16.675Z,17.00
2017-09-13T17:24:50.433Z,17.00
2017-09-13T17:27:26.887Z,17.10
2017-09-13T17:30:02.218Z,17.00
2017-09-13T17:32:38.354Z,17.00
2017-09-13T17:35:12.192Z,17.10
2017-09-13T17:37:45.740Z,17.10
2017-09-13T17:40:19.770Z,17.10
2017-09-13T17:45:37.271Z,17.00
2017-09-13T17:48:36.064Z,17.00
2017-09-13T17:51:10.437Z,17.00
2017-09-13T17:53:43.758Z,16.90
2017-09-13T17:56:17.636Z,16.90
2017-09-13T17:58:50.402Z,16.80
2017-09-13T18:01:24.376Z,16.80
2017-09-13T18:03:56.031Z,16.80
2017-09-13T18:06:27.029Z,16.70
2017-09-13T18:08:57.575Z,16.60
2017-09-13T18:11:32.161Z,16.50
2017-09-13T18:14:08.596Z,16.50
2017-09-13T18:16:40.784Z,16.50
2017-09-13T18:19:15.136Z,16.50
2017-09-13T18:21:50.544Z,16.40
2017-09-13T18:24:23.689Z,16.40
2017-09-13T18:26:59.247Z,16.30
2017-09-13T18:29:33.268Z,16.30
2017-09-13T18:32:11.634Z,16.20
2017-09-13T18:34:45.537Z,16.10
2017-09-13T18:37:23.817Z,16.10
2017-09-13T18:40:00.354Z,16.10
2017-09-13T18:42:35.216Z,16.10
2017-09-13T18:45:06.651Z,16.10
2017-09-13T18:47:38.743Z,16.00
2017-09-13T18:50:15.724Z,16.00
2017-09-13T18:52:49.536Z,16.00
2017-09-13T18:55:26.446Z,16.00
2017-09-13T18:58:04.297Z,16.00
2017-09-13T19:00:42.463Z,16.10
2017-09-13T19:03:16.157Z,16.10
2017-09-13T19:05:57.238Z,16.00
2017-09-13T19:08:35.384Z,16.10
2017-09-13T19:11:20.455Z,16.10
2017-09-13T19:13:56.133Z,16.20
2017-09-13T19:16:34.268Z,16.10
2017-09-13T19:19:13.765Z,16.10
2017-09-13T19:21:53.067Z,16.10
2017-09-13T19:24:28.279Z,16.10
2017-09-13T19:27:04.131Z,16.10
2017-09-13T19:29:39.439Z,16.10
2017-09-13T19:32:13.804Z,16.10
2017-09-13T19:34:49.148Z,16.20
2017-09-13T19:37:26.582Z,16.30
2017-09-13T19:40:00.469Z,16.40
2017-09-13T19:42:33.096Z,16.30
2017-09-13T19:45:10.071Z,16.30
2017-09-13T19:47:44.480Z,16.40
2017-09-13T19:50:16.974Z,16.40
2017-09-13T19:52:50.989Z,16.30
2017-09-13T19:55:25.290Z,16.30
2017-09-13T19:57:58.964Z,16.30
2017-09-13T20:00:33.485Z,16.30
2017-09-13T20:03:07.020Z,16.40
2017-09-13T20:05:43.079Z,16.30
2017-09-13T20:08:22.132Z,16.30
2017-09-13T20:10:56.293Z,16.30
2017-09-13T20:13:28.929Z,16.30
2017-09-13T20:16:01.370Z,16.30
2017-09-13T20:18:33.530Z,16.20
2017-09-13T20:21:07.285Z,16.30
2017-09-13T20:23:49.280Z,16.30
2017-09-13T20:26:22.768Z,16.30
2017-09-13T20:28:56.178Z,16.20
2017-09-13T20:31:29.257Z,16.20
2017-09-13T20:34:04.179Z,16.20
2017-09-13T20:36:35.937Z,16.20
2017-09-13T20:39:07.716Z,16.20
2017-09-13T20:41:40.392Z,16.20
2017-09-13T20:44:13.532Z,16.20
2017-09-13T20:46:44.230Z,16.20
2017-09-13T20:49:14.085Z,16.20
2017-09-13T20:51:44.076Z,16.10
2017-09-13T20:54:13.969Z,16.00
2017-09-13T20:56:44.418Z,16.00
2017-09-13T20:59:14.651Z,15.90
2017-09-13T21:01:48.379Z,16.00
2017-09-13T21:04:18.810Z,16.00
2017-09-13T21:06:49.342Z,16.00
2017-09-13T21:09:19.549Z,15.90
2017-09-13T21:12:33.573Z,15.90
2017-09-13T21:15:04.479Z,15.80
2017-09-13T21:17:35.852Z,15.70
2017-09-13T21:20:05.372Z,15.60
2017-09-13T21:22:35.314Z,15.60
2017-09-13T21:25:06.240Z,15.60
2017-09-13T21:27:40.637Z,15.60
2017-09-13T21:30:13.890Z,15.60
2017-09-13T21:36:04.611Z,15.50
2017-09-13T21:38:34.934Z,15.50
2017-09-13T21:41:07.246Z,15.50
2017-09-13T21:43:40.197Z,15.50
2017-09-13T21:46:09.788Z,15.50
2017-09-13T21:48:45.402Z,15.50
2017-09-13T21:51:15.298Z,15.40
2017-09-13T21:53:56.037Z,15.30
2017-09-13T21:56:26.886Z,15.30
2017-09-13T22:18:52.540Z,15.10
2017-09-13T22:21:22.365Z,15.10
2017-09-13T22:23:51.838Z,15.00
2017-09-13T22:26:22.720Z,14.90
2017-09-13T22:28:53.591Z,15.00
2017-09-13T22:31:24.032Z,14.90
2017-09-13T22:33:54.480Z,14.80
2017-09-13T22:36:24.000Z,14.80
2017-09-13T22:38:55.033Z,14.80
2017-09-13T22:41:27.421Z,14.70
2017-09-13T22:43:57.697Z,14.60
2017-09-13T22:46:38.260Z,14.60
2017-09-13T22:49:07.972Z,14.60
2017-09-13T22:51:37.641Z,14.50
2017-09-13T22:54:07.295Z,14.50
2017-09-13T22:56:37.256Z,14.50
2017-09-13T22:59:06.762Z,14.40
2017-09-13T23:01:36.005Z,14.30
2017-09-13T23:04:05.619Z,14.30
2017-09-13T23:06:35.480Z,14.30
2017-09-13T23:09:05.224Z,14.30
2017-09-13T23:11:34.649Z,14.20
2017-09-13T23:14:04.162Z,14.20
2017-09-13T23:16:34.329Z,14.10
2017-09-13T23:19:03.707Z,14.10
2017-09-13T23:21:33.153Z,14.10
2017-09-13T23:24:02.491Z,14.10
2017-09-13T23:26:32.691Z,14.20
2017-09-13T23:29:02.213Z,14.20
2017-09-13T23:31:32.228Z,14.20
2017-09-13T23:34:02.269Z,14.20
2017-09-13T23:36:31.567Z,14.20
2017-09-13T23:39:01.158Z,14.20
2017-09-13T23:41:31.381Z,14.20
2017-09-13T23:44:01.331Z,14.20
2017-09-13T23:46:31.055Z,14.20
2017-09-13T23:49:00.413Z,14.20
2017-09-13T23:51:30.556Z,14.10
2017-09-13T23:53:59.809Z,14.10
2017-09-13T23:56:29.188Z,14.20
2017-09-13T23:58:59.001Z,14.10
